sensor_id;sensor_type;location;lat;lon;timestamp;pressure;altitude;pressure_sealevel;temperature;humidity
21086;BME280;34247;50.064;19.970;2023-06-14T00:00:41;99198.75;;;14.76;95.29
21086;BME280;34247;50.064;19.970;2023-06-14T00:02:18;99191.56;;;14.76;95.31
21086;BME280;34247;50.064;19.970;2023-06-14T00:03:55;99195.09;;;14.77;95.16
21086;BME280;34247;50.064;19.970;2023-06-14T00:05:37;99200.88;;;14.82;95.00
21086;BME280;34247;50.064;19.970;2023-06-14T00:07:13;99195.69;;;14.80;95.17
21086;BME280;34247;50.064;19.970;2023-06-14T00:08:52;99199.75;;;14.84;95.26
21086;BME280;34247;50.064;19.970;2023-06-14T00:10:26;99201.47;;;14.85;95.18
21086;BME280;34247;50.064;19.970;2023-06-14T00:12:04;99196.97;;;14.86;95.37
21086;BME280;34247;50.064;19.970;2023-06-14T00:13:38;99191.63;;;14.86;95.41
21086;BME280;34247;50.064;19.970;2023-06-14T00:15:12;99193.03;;;14.90;94.99
21086;BME280;34247;50.064;19.970;2023-06-14T00:16:45;99199.81;;;14.94;94.96
21086;BME280;34247;50.064;19.970;2023-06-14T00:18:19;99193.50;;;14.95;95.09
21086;BME280;34247;50.064;19.970;2023-06-14T00:19:52;99199.53;;;14.97;94.86
21086;BME280;34247;50.064;19.970;2023-06-14T00:21:25;99203.91;;;14.98;94.81
21086;BME280;34247;50.064;19.970;2023-06-14T00:23:00;99195.19;;;14.96;94.82
21086;BME280;34247;50.064;19.970;2023-06-14T00:24:34;99197.00;;;14.96;95.12
21086;BME280;34247;50.064;19.970;2023-06-14T00:26:07;99197.00;;;14.96;95.07
21086;BME280;34247;50.064;19.970;2023-06-14T00:27:40;99195.47;;;14.93;95.07
21086;BME280;34247;50.064;19.970;2023-06-14T00:29:14;99193.88;;;14.90;95.63
21086;BME280;34247;50.064;19.970;2023-06-14T00:30:47;99189.38;;;14.91;95.65
21086;BME280;34247;50.064;19.970;2023-06-14T00:32:24;99187.69;;;14.90;95.97
21086;BME280;34247;50.064;19.970;2023-06-14T00:33:57;99194.16;;;14.87;95.90
21086;BME280;34247;50.064;19.970;2023-06-14T00:35:31;99182.19;;;14.82;96.44
21086;BME280;34247;50.064;19.970;2023-06-14T00:37:04;99184.16;;;14.80;96.65
21086;BME280;34247;50.064;19.970;2023-06-14T00:38:37;99184.16;;;14.80;97.09
21086;BME280;34247;50.064;19.970;2023-06-14T00:40:11;99189.50;;;14.80;97.15
21086;BME280;34247;50.064;19.970;2023-06-14T00:41:45;99187.91;;;14.77;97.66
21086;BME280;34247;50.064;19.970;2023-06-14T00:43:20;99187.06;;;14.77;97.87
21086;BME280;34247;50.064;19.970;2023-06-14T00:44:53;99188.78;;;14.78;97.94
21086;BME280;34247;50.064;19.970;2023-06-14T00:46:28;99179.06;;;14.77;98.21
21086;BME280;34247;50.064;19.970;2023-06-14T00:48:03;99185.66;;;14.73;98.43
21086;BME280;34247;50.064;19.970;2023-06-14T00:49:38;99187.88;;;14.68;98.92
21086;BME280;34247;50.064;19.970;2023-06-14T00:51:11;99179.41;;;14.62;99.77
21086;BME280;34247;50.064;19.970;2023-06-14T00:52:44;99177.03;;;14.59;100.00
21086;BME280;34247;50.064;19.970;2023-06-14T00:54:18;99189.53;;;14.59;100.00
21086;BME280;34247;50.064;19.970;2023-06-14T00:55:51;99182.75;;;14.55;100.00
21086;BME280;34247;50.064;19.970;2023-06-14T00:57:25;99180.34;;;14.52;100.00
21086;BME280;34247;50.064;19.970;2023-06-14T00:58:59;99177.69;;;14.52;100.00
21086;BME280;34247;50.064;19.970;2023-06-14T01:00:33;99176.84;;;14.51;100.00
21086;BME280;34247;50.064;19.970;2023-06-14T01:02:06;99170.50;;;14.52;100.00
21086;BME280;34247;50.064;19.970;2023-06-14T01:03:39;99171.22;;;14.54;100.00
21086;BME280;34247;50.064;19.970;2023-06-14T01:05:17;99168.69;;;14.53;100.00
21086;BME280;34247;50.064;19.970;2023-06-14T01:09:20;99176.25;;;14.48;100.00
21086;BME280;34247;50.064;19.970;2023-06-14T01:11:12;99168.97;;;14.50;100.00
21086;BME280;34247;50.064;19.970;2023-06-14T01:14:36;99175.41;;;14.47;100.00
21086;BME280;34247;50.064;19.970;2023-06-14T01:16:10;99162.03;;;14.47;100.00
21086;BME280;34247;50.064;19.970;2023-06-14T01:17:45;99167.13;;;14.50;100.00
21086;BME280;34247;50.064;19.970;2023-06-14T01:19:20;99163.34;;;14.53;100.00
21086;BME280;34247;50.064;19.970;2023-06-14T01:20:56;99162.22;;;14.55;100.00
21086;BME280;34247;50.064;19.970;2023-06-14T01:22:29;99158.59;;;14.56;100.00
21086;BME280;34247;50.064;19.970;2023-06-14T01:24:03;99152.81;;;14.51;100.00
21086;BME280;34247;50.064;19.970;2023-06-14T01:25:36;99160.69;;;14.53;100.00
21086;BME280;34247;50.064;19.970;2023-06-14T01:27:11;99160.69;;;14.53;100.00
21086;BME280;34247;50.064;19.970;2023-06-14T01:28:47;99159.00;;;14.52;100.00
21086;BME280;34247;50.064;19.970;2023-06-14T01:30:25;99150.97;;;14.52;100.00
21086;BME280;34247;50.064;19.970;2023-06-14T01:32:00;99149.75;;;14.56;100.00
21086;BME280;34247;50.064;19.970;2023-06-14T01:33:36;99149.47;;;14.59;100.00
21086;BME280;34247;50.064;19.970;2023-06-14T01:35:10;99151.00;;;14.61;100.00
21086;BME280;34247;50.064;19.970;2023-06-14T01:36:45;99150.03;;;14.62;100.00
21086;BME280;34247;50.064;19.970;2023-06-14T01:38:23;99153.44;;;14.65;100.00
21086;BME280;34247;50.064;19.970;2023-06-14T01:39:59;99155.97;;;14.66;100.00
21086;BME280;34247;50.064;19.970;2023-06-14T01:41:35;99146.81;;;14.69;100.00
21086;BME280;34247;50.064;19.970;2023-06-14T01:43:14;99141.22;;;14.72;100.00
21086;BME280;34247;50.064;19.970;2023-06-14T01:44:50;99144.75;;;14.72;100.00
21086;BME280;34247;50.064;19.970;2023-06-14T01:46:25;99143.91;;;14.72;100.00
21086;BME280;34247;50.064;19.970;2023-06-14T01:48:00;99143.16;;;14.70;100.00
21086;BME280;34247;50.064;19.970;2023-06-14T01:49:34;99132.06;;;14.65;100.00
21086;BME280;34247;50.064;19.970;2023-06-14T01:51:11;99141.47;;;14.69;100.00
21086;BME280;34247;50.064;19.970;2023-06-14T01:52:44;99137.97;;;14.68;100.00
21086;BME280;34247;50.064;19.970;2023-06-14T01:54:17;99144.88;;;14.71;100.00
21086;BME280;34247;50.064;19.970;2023-06-14T01:55:57;99143.91;;;14.72;100.00
21086;BME280;34247;50.064;19.970;2023-06-14T01:57:32;99138.66;;;14.70;100.00
21086;BME280;34247;50.064;19.970;2023-06-14T01:59:05;99144.88;;;14.71;100.00
21086;BME280;34247;50.064;19.970;2023-06-14T02:00:49;99142.31;;;14.69;100.00
21086;BME280;34247;50.064;19.970;2023-06-14T02:02:26;99146.56;;;14.72;100.00
21086;BME280;34247;50.064;19.970;2023-06-14T02:03:59;99149.63;;;14.67;100.00
21086;BME280;34247;50.064;19.970;2023-06-14T02:05:34;99148.22;;;14.63;100.00
21086;BME280;34247;50.064;19.970;2023-06-14T02:07:10;99151.28;;;14.58;100.00
21086;BME280;34247;50.064;19.970;2023-06-14T02:08:45;99155.19;;;14.54;100.00
21086;BME280;34247;50.064;19.970;2023-06-14T02:10:20;99152.81;;;14.51;100.00
21086;BME280;34247;50.064;19.970;2023-06-14T02:11:54;99151.97;;;14.51;100.00
21086;BME280;34247;50.064;19.970;2023-06-14T02:13:31;99148.44;;;14.50;100.00
21086;BME280;34247;50.064;19.970;2023-06-14T02:15:08;99153.50;;;14.53;100.00
21086;BME280;34247;50.064;19.970;2023-06-14T02:16:45;99149.84;;;14.54;100.00
21086;BME280;34247;50.064;19.970;2023-06-14T02:18:22;99154.09;;;14.57;100.00
21086;BME280;34247;50.064;19.970;2023-06-14T02:19:59;99152.97;;;14.59;100.00
21086;BME280;34247;50.064;19.970;2023-06-14T02:21:33;99143.13;;;14.60;100.00
21086;BME280;34247;50.064;19.970;2023-06-14T02:23:07;99140.00;;;14.55;100.00
21086;BME280;34247;50.064;19.970;2023-06-14T02:24:47;99142.56;;;14.56;100.00
21086;BME280;34247;50.064;19.970;2023-06-14T02:26:26;99146.19;;;14.55;100.00
21086;BME280;34247;50.064;19.970;2023-06-14T02:27:59;99145.09;;;14.58;100.00
21086;BME280;34247;50.064;19.970;2023-06-14T02:29:34;99150.16;;;14.61;100.00
21086;BME280;34247;50.064;19.970;2023-06-14T02:31:07;99143.84;;;14.62;100.00
21086;BME280;34247;50.064;19.970;2023-06-14T02:32:40;99146.50;;;14.62;100.00
21086;BME280;34247;50.064;19.970;2023-06-14T02:34:14;99151.00;;;14.61;100.00
21086;BME280;34247;50.064;19.970;2023-06-14T02:35:47;99152.69;;;14.62;100.00
21086;BME280;34247;50.064;19.970;2023-06-14T02:37:21;99152.00;;;14.60;100.00
21086;BME280;34247;50.064;19.970;2023-06-14T02:38:57;99150.03;;;14.62;100.00
21086;BME280;34247;50.064;19.970;2023-06-14T02:40:38;99148.22;;;14.63;100.00
21086;BME280;34247;50.064;19.970;2023-06-14T02:42:24;99140.06;;;14.65;100.00
21086;BME280;34247;50.064;19.970;2023-06-14T02:44:03;99142.88;;;14.63;100.00
21086;BME280;34247;50.064;19.970;2023-06-14T02:45:41;99139.34;;;14.62;100.00
21086;BME280;34247;50.064;19.970;2023-06-14T02:47:21;99145.41;;;14.65;100.00
21086;BME280;34247;50.064;19.970;2023-06-14T02:48:54;99143.44;;;14.67;100.00
21086;BME280;34247;50.064;19.970;2023-06-14T02:50:30;99137.97;;;14.68;100.00
21086;BME280;34247;50.064;19.970;2023-06-14T02:52:06;99144.16;;;14.69;100.00
21086;BME280;34247;50.064;19.970;2023-06-14T02:53:44;99138.94;;;14.67;100.00
21086;BME280;34247;50.064;19.970;2023-06-14T02:55:22;99130.78;;;14.69;100.00
21086;BME280;34247;50.064;19.970;2023-06-14T02:57:10;99139.56;;;14.71;100.00
21086;BME280;34247;50.064;19.970;2023-06-14T02:58:45;99142.06;;;14.72;100.00
21086;BME280;34247;50.064;19.970;2023-06-14T03:00:29;99139.41;;;14.72;100.00
21086;BME280;34247;50.064;19.970;2023-06-14T03:02:18;99135.91;;;14.72;100.00
21086;BME280;34247;50.064;19.970;2023-06-14T03:03:55;99142.59;;;14.66;100.00
21086;BME280;34247;50.064;19.970;2023-06-14T03:05:29;99137.41;;;14.65;100.00
21086;BME280;34247;50.064;19.970;2023-06-14T03:07:03;99138.09;;;14.67;100.00
21086;BME280;34247;50.064;19.970;2023-06-14T03:08:37;99145.97;;;14.68;100.00
21086;BME280;34247;50.064;19.970;2023-06-14T03:10:10;99138.81;;;14.69;100.00
21086;BME280;34247;50.064;19.970;2023-06-14T03:11:43;99134.44;;;14.68;100.00
21086;BME280;34247;50.064;19.970;2023-06-14T03:13:16;99136.16;;;14.69;100.00
21086;BME280;34247;50.064;19.970;2023-06-14T03:14:50;99139.56;;;14.71;100.00
21086;BME280;34247;50.064;19.970;2023-06-14T03:16:24;99144.75;;;14.72;100.00
21086;BME280;34247;50.064;19.970;2023-06-14T03:18:00;99135.91;;;14.72;100.00
21086;BME280;34247;50.064;19.970;2023-06-14T03:19:42;99141.78;;;14.75;100.00
21086;BME280;34247;50.064;19.970;2023-06-14T03:21:16;99142.38;;;14.79;100.00
21086;BME280;34247;50.064;19.970;2023-06-14T03:22:56;99138.88;;;14.78;100.00
21086;BME280;34247;50.064;19.970;2023-06-14T03:24:31;99142.94;;;14.82;100.00
21086;BME280;34247;50.064;19.970;2023-06-14T03:26:10;99141.13;;;14.83;100.00
21086;BME280;34247;50.064;19.970;2023-06-14T03:27:48;99141.72;;;14.86;100.00
21086;BME280;34247;50.064;19.970;2023-06-14T03:29:36;99138.19;;;14.86;100.00
21086;BME280;34247;50.064;19.970;2023-06-14T03:31:12;99135.25;;;14.89;100.00
21086;BME280;34247;50.064;19.970;2023-06-14T03:32:52;99134.97;;;14.92;100.00
21086;BME280;34247;50.064;19.970;2023-06-14T03:34:42;99135.53;;;14.96;100.00
21086;BME280;34247;50.064;19.970;2023-06-14T03:36:16;99136.25;;;14.98;100.00
21086;BME280;34247;50.064;19.970;2023-06-14T03:38:05;99142.56;;;14.97;100.00
21086;BME280;34247;50.064;19.970;2023-06-14T03:39:44;99137.94;;;14.99;100.00
21086;BME280;34247;50.064;19.970;2023-06-14T03:41:30;99141.47;;;14.99;100.00
21086;BME280;34247;50.064;19.970;2023-06-14T03:43:19;99141.34;;;15.01;100.00
21086;BME280;34247;50.064;19.970;2023-06-14T03:44:52;99148.38;;;15.02;100.00
21086;BME280;34247;50.064;19.970;2023-06-14T03:46:28;99145.84;;;15.00;100.00
21086;BME280;34247;50.064;19.970;2023-06-14T03:48:12;99150.34;;;15.00;100.00
21086;BME280;34247;50.064;19.970;2023-06-14T03:49:54;99145.84;;;15.00;100.00
21086;BME280;34247;50.064;19.970;2023-06-14T03:51:42;99151.28;;;14.99;100.00
21086;BME280;34247;50.064;19.970;2023-06-14T03:53:16;99150.34;;;15.00;100.00
21086;BME280;34247;50.064;19.970;2023-06-14T03:54:53;99151.72;;;14.94;100.00
21086;BME280;34247;50.064;19.970;2023-06-14T03:56:53;99154.47;;;14.83;100.00
21086;BME280;34247;50.064;19.970;2023-06-14T03:58:29;99152.47;;;14.75;100.00
21086;BME280;34247;50.064;19.970;2023-06-14T04:00:08;99153.59;;;14.73;100.00
21086;BME280;34247;50.064;19.970;2023-06-14T04:02:03;99157.25;;;14.72;100.00
21086;BME280;34247;50.064;19.970;2023-06-14T04:03:41;99158.94;;;14.73;100.00
21086;BME280;34247;50.064;19.970;2023-06-14T04:05:33;99149.94;;;14.74;100.00
21086;BME280;34247;50.064;19.970;2023-06-14T04:07:12;99155.44;;;14.72;100.00
21086;BME280;34247;50.064;19.970;2023-06-14T04:08:59;99158.53;;;14.77;100.00
21086;BME280;34247;50.064;19.970;2023-06-14T04:10:47;99159.97;;;14.81;100.00
21086;BME280;34247;50.064;19.970;2023-06-14T04:12:26;99159.41;;;14.78;100.00
21086;BME280;34247;50.064;19.970;2023-06-14T04:14:05;99160.09;;;14.80;100.00
21086;BME280;34247;50.064;19.970;2023-06-14T04:15:48;99150.50;;;14.77;100.00
21086;BME280;34247;50.064;19.970;2023-06-14T04:17:28;99160.66;;;14.83;100.00
21086;BME280;34247;50.064;19.970;2023-06-14T04:19:17;99153.50;;;14.84;100.00
21086;BME280;34247;50.064;19.970;2023-06-14T04:21:27;99151.94;;;14.81;100.00
21086;BME280;34247;50.064;19.970;2023-06-14T04:23:23;99155.91;;;14.87;100.00
21086;BME280;34247;50.064;19.970;2023-06-14T04:25:14;99162.94;;;14.88;100.00
21086;BME280;34247;50.064;19.970;2023-06-14T04:27:18;99163.78;;;14.88;100.00
21086;BME280;34247;50.064;19.970;2023-06-14T04:29:05;99162.66;;;14.91;100.00
21086;BME280;34247;50.064;19.970;2023-06-14T04:31:09;99154.78;;;14.89;100.00
21086;BME280;34247;50.064;19.970;2023-06-14T04:33:05;99160.13;;;14.89;100.00
21086;BME280;34247;50.064;19.970;2023-06-14T04:34:58;99173.25;;;14.93;100.00
21086;BME280;34247;50.064;19.970;2023-06-14T04:36:36;99173.25;;;14.93;100.00
21086;BME280;34247;50.064;19.970;2023-06-14T04:38:16;99160.97;;;14.90;100.00
21086;BME280;34247;50.064;19.970;2023-06-14T04:39:49;99164.38;;;14.92;100.00
21086;BME280;34247;50.064;19.970;2023-06-14T04:41:23;99165.22;;;14.93;100.00
21086;BME280;34247;50.064;19.970;2023-06-14T04:42:56;99166.06;;;14.93;100.00
21086;BME280;34247;50.064;19.970;2023-06-14T04:44:29;99169.84;;;14.90;100.00
21086;BME280;34247;50.064;19.970;2023-06-14T04:46:02;99170.97;;;14.88;100.00
21086;BME280;34247;50.064;19.970;2023-06-14T04:47:36;99165.44;;;14.80;100.00
21086;BME280;34247;50.064;19.970;2023-06-14T04:49:10;99163.31;;;14.74;100.00
21086;BME280;34247;50.064;19.970;2023-06-14T04:50:43;99170.16;;;14.67;100.00
21086;BME280;34247;50.064;19.970;2023-06-14T04:52:16;99165.34;;;14.60;100.00
21086;BME280;34247;50.064;19.970;2023-06-14T04:53:49;99174.63;;;14.56;100.00
21086;BME280;34247;50.064;19.970;2023-06-14T04:55:22;99166.16;;;14.51;100.00
21086;BME280;34247;50.064;19.970;2023-06-14T04:56:57;99169.81;;;14.50;100.00
21086;BME280;34247;50.064;19.970;2023-06-14T04:58:30;99168.81;;;14.51;100.00
21086;BME280;34247;50.064;19.970;2023-06-14T05:00:05;99167.00;;;14.52;100.00
21086;BME280;34247;50.064;19.970;2023-06-14T05:01:38;99169.53;;;14.53;100.00
21086;BME280;34247;50.064;19.970;2023-06-14T05:03:12;99164.03;;;14.55;100.00
21086;BME280;34247;50.064;19.970;2023-06-14T05:04:45;99165.78;;;14.56;100.00
21086;BME280;34247;50.064;19.970;2023-06-14T05:06:18;99161.53;;;14.53;100.00
21086;BME280;34247;50.064;19.970;2023-06-14T05:07:52;99168.81;;;14.51;100.00
21086;BME280;34247;50.064;19.970;2023-06-14T05:09:25;99167.28;;;14.49;100.00
21086;BME280;34247;50.064;19.970;2023-06-14T05:10:58;99174.66;;;14.45;100.00
21086;BME280;34247;50.064;19.970;2023-06-14T05:12:32;99173.94;;;14.43;100.00
21086;BME280;34247;50.064;19.970;2023-06-14T05:14:06;99175.03;;;14.41;100.00
21086;BME280;34247;50.064;19.970;2023-06-14T05:15:39;99178.84;;;14.38;100.00
21086;BME280;34247;50.064;19.970;2023-06-14T05:17:18;99178.13;;;14.36;100.00
21086;BME280;34247;50.064;19.970;2023-06-14T05:18:51;99177.53;;;14.32;100.00
21086;BME280;34247;50.064;19.970;2023-06-14T05:20:25;99179.22;;;14.33;100.00
21086;BME280;34247;50.064;19.970;2023-06-14T05:21:58;99188.81;;;14.36;100.00
21086;BME280;34247;50.064;19.970;2023-06-14T05:23:32;99179.81;;;14.37;100.00
21086;BME280;34247;50.064;19.970;2023-06-14T05:25:06;99182.81;;;14.44;100.00
21086;BME280;34247;50.064;19.970;2023-06-14T05:26:40;99182.56;;;14.47;100.00
21086;BME280;34247;50.064;19.970;2023-06-14T05:28:13;99167.28;;;14.49;100.00
21086;BME280;34247;50.064;19.970;2023-06-14T05:29:48;99175.16;;;14.50;100.00
21086;BME280;34247;50.064;19.970;2023-06-14T05:31:22;99167.28;;;14.49;100.00
21086;BME280;34247;50.064;19.970;2023-06-14T05:32:58;99172.34;;;14.52;100.00
21086;BME280;34247;50.064;19.970;2023-06-14T05:34:32;99168.13;;;14.49;100.00
21086;BME280;34247;50.064;19.970;2023-06-14T05:36:08;99179.06;;;14.46;100.00
21086;BME280;34247;50.064;19.970;2023-06-14T05:37:42;99184.50;;;14.45;100.00
21086;BME280;34247;50.064;19.970;2023-06-14T05:39:15;99185.34;;;14.45;100.00
21086;BME280;34247;50.064;19.970;2023-06-14T05:40:50;99180.75;;;14.47;100.00
21086;BME280;34247;50.064;19.970;2023-06-14T05:42:23;99190.44;;;14.48;100.00
21086;BME280;34247;50.064;19.970;2023-06-14T05:43:57;99192.16;;;14.49;100.00
21086;BME280;34247;50.064;19.970;2023-06-14T05:45:30;99197.34;;;14.51;100.00
21086;BME280;34247;50.064;19.970;2023-06-14T05:47:05;99195.41;;;14.53;100.00
21086;BME280;34247;50.064;19.970;2023-06-14T05:48:38;99196.25;;;14.53;100.00
21086;BME280;34247;50.064;19.970;2023-06-14T05:50:13;99190.66;;;14.56;100.00
21086;BME280;34247;50.064;19.970;2023-06-14T05:51:46;99184.75;;;14.62;100.00
21086;BME280;34247;50.064;19.970;2023-06-14T05:53:20;99186.34;;;14.65;100.00
21086;BME280;34247;50.064;19.970;2023-06-14T05:54:54;99184.38;;;14.67;100.00
21086;BME280;34247;50.064;19.970;2023-06-14T05:56:31;99189.56;;;14.69;100.00
21086;BME280;34247;50.064;19.970;2023-06-14T05:58:04;99191.53;;;14.67;100.00
21086;BME280;34247;50.064;19.970;2023-06-14T05:59:39;99196.03;;;14.66;100.00
21086;BME280;34247;50.064;19.970;2023-06-14T06:01:13;99192.53;;;14.66;100.00
21086;BME280;34247;50.064;19.970;2023-06-14T06:02:48;99203.91;;;14.68;100.00
21086;BME280;34247;50.064;19.970;2023-06-14T06:04:23;99198.44;;;14.69;100.00
21086;BME280;34247;50.064;19.970;2023-06-14T06:05:57;99195.66;;;14.71;100.00
21086;BME280;34247;50.064;19.970;2023-06-14T06:07:43;99192.00;;;14.72;100.00
21086;BME280;34247;50.064;19.970;2023-06-14T06:09:37;99193.81;;;14.71;100.00
21086;BME280;34247;50.064;19.970;2023-06-14T06:11:29;99193.69;;;14.73;100.00
21086;BME280;34247;50.064;19.970;2023-06-14T06:13:28;99202.69;;;14.72;100.00
21086;BME280;34247;50.064;19.970;2023-06-14T06:15:25;99198.03;;;14.74;100.00
21086;BME280;34247;50.064;19.970;2023-06-14T06:16:58;99202.25;;;14.76;100.00
21086;BME280;34247;50.064;19.970;2023-06-14T06:18:33;99197.22;;;14.83;100.00
21086;BME280;34247;50.064;19.970;2023-06-14T06:20:07;99199.50;;;14.87;100.00
21086;BME280;34247;50.064;19.970;2023-06-14T06:21:40;99201.91;;;14.90;100.00
21086;BME280;34247;50.064;19.970;2023-06-14T06:23:14;99208.09;;;14.91;100.00
21086;BME280;34247;50.064;19.970;2023-06-14T06:24:49;99209.09;;;14.90;100.00
21086;BME280;34247;50.064;19.970;2023-06-14T06:26:22;99200.34;;;14.88;100.00
21086;BME280;34247;50.064;19.970;2023-06-14T06:27:57;99202.03;;;14.89;100.00
21086;BME280;34247;50.064;19.970;2023-06-14T06:29:30;99200.34;;;14.88;100.00
21086;BME280;34247;50.064;19.970;2023-06-14T06:31:04;99205.69;;;14.88;100.00
21086;BME280;34247;50.064;19.970;2023-06-14T06:32:37;99207.00;;;14.94;100.00
21086;BME280;34247;50.064;19.970;2023-06-14T06:34:11;99203.19;;;14.96;100.00
21086;BME280;34247;50.064;19.970;2023-06-14T06:35:45;99200.13;;;15.01;100.00
21086;BME280;34247;50.064;19.970;2023-06-14T06:37:19;99212.53;;;15.11;100.00
21086;BME280;34247;50.064;19.970;2023-06-14T06:38:52;99214.41;;;15.21;100.00
21086;BME280;34247;50.064;19.970;2023-06-14T06:40:26;99211.19;;;15.27;100.00
21086;BME280;34247;50.064;19.970;2023-06-14T06:42:00;99214.44;;;15.30;100.00
21086;BME280;34247;50.064;19.970;2023-06-14T06:43:33;99228.38;;;15.34;100.00
21086;BME280;34247;50.064;19.970;2023-06-14T06:45:07;99225.56;;;15.35;100.00
21086;BME280;34247;50.064;19.970;2023-06-14T06:46:40;99224.47;;;15.38;100.00
21086;BME280;34247;50.064;19.970;2023-06-14T06:48:14;99227.00;;;15.39;100.00
21086;BME280;34247;50.064;19.970;2023-06-14T06:49:47;99228.53;;;15.42;100.00
21086;BME280;34247;50.064;19.970;2023-06-14T06:51:21;99228.28;;;15.45;100.00
21086;BME280;34247;50.064;19.970;2023-06-14T06:52:54;99230.81;;;15.47;100.00
21086;BME280;34247;50.064;19.970;2023-06-14T06:54:28;99225.06;;;15.51;100.00
21086;BME280;34247;50.064;19.970;2023-06-14T06:56:01;99227.19;;;15.57;100.00
21086;BME280;34247;50.064;19.970;2023-06-14T06:57:34;99228.38;;;15.64;100.00
21086;BME280;34247;50.064;19.970;2023-06-14T06:59:08;99233.03;;;15.72;100.00
21086;BME280;34247;50.064;19.970;2023-06-14T07:00:42;99233.56;;;15.76;100.00
21086;BME280;34247;50.064;19.970;2023-06-14T07:02:15;99238.63;;;15.79;100.00
21086;BME280;34247;50.064;19.970;2023-06-14T07:03:49;99235.00;;;15.80;100.00
21086;BME280;34247;50.064;19.970;2023-06-14T07:05:23;99243.72;;;15.82;100.00
21086;BME280;34247;50.064;19.970;2023-06-14T07:06:56;99237.09;;;15.86;100.00
21086;BME280;34247;50.064;19.970;2023-06-14T07:08:29;99235.56;;;15.93;100.00
21086;BME280;34247;50.064;19.970;2023-06-14T07:10:04;99240.34;;;15.99;100.00
21086;BME280;34247;50.064;19.970;2023-06-14T07:11:38;99233.16;;;15.99;100.00
21086;BME280;34247;50.064;19.970;2023-06-14T07:13:12;99239.66;;;15.97;100.00
21086;BME280;34247;50.064;19.970;2023-06-14T07:14:49;99244.31;;;15.95;100.00
21086;BME280;34247;50.064;19.970;2023-06-14T07:16:22;99243.59;;;15.93;100.00
21086;BME280;34247;50.064;19.970;2023-06-14T07:17:56;99243.03;;;15.89;100.00
21086;BME280;34247;50.064;19.970;2023-06-14T07:19:29;99246.00;;;15.86;100.00
21086;BME280;34247;50.064;19.970;2023-06-14T07:21:02;99249.53;;;15.87;100.00
21086;BME280;34247;50.064;19.970;2023-06-14T07:22:36;99255.28;;;15.92;100.00
21086;BME280;34247;50.064;19.970;2023-06-14T07:24:10;99251.50;;;15.94;100.00
21086;BME280;34247;50.064;19.970;2023-06-14T07:25:43;99263.75;;;15.97;100.00
21086;BME280;34247;50.064;19.970;2023-06-14T07:27:17;99260.09;;;15.98;100.00
21086;BME280;34247;50.064;19.970;2023-06-14T07:28:50;99260.78;;;16.00;100.00
21086;BME280;34247;50.064;19.970;2023-06-14T07:30:29;99268.53;;;16.03;100.00
21086;BME280;34247;50.064;19.970;2023-06-14T07:32:04;99263.19;;;16.03;100.00
21086;BME280;34247;50.064;19.970;2023-06-14T07:33:37;99263.19;;;16.03;100.00
21086;BME280;34247;50.064;19.970;2023-06-14T07:35:11;99258.69;;;16.04;100.00
21086;BME280;34247;50.064;19.970;2023-06-14T07:36:44;99264.03;;;16.04;100.00
21086;BME280;34247;50.064;19.970;2023-06-14T07:38:17;99253.47;;;16.02;100.00
21086;BME280;34247;50.064;19.970;2023-06-14T07:39:50;99263.88;;;16.05;100.00
21086;BME280;34247;50.064;19.970;2023-06-14T07:41:24;99261.50;;;16.02;100.00
21086;BME280;34247;50.064;19.970;2023-06-14T07:42:58;99271.22;;;16.03;100.00
21086;BME280;34247;50.064;19.970;2023-06-14T07:44:31;99262.06;;;16.06;100.00
21086;BME280;34247;50.064;19.970;2023-06-14T07:46:05;99261.91;;;16.07;100.00
21086;BME280;34247;50.064;19.970;2023-06-14T07:47:40;99260.81;;;16.10;100.00
21086;BME280;34247;50.064;19.970;2023-06-14T07:49:14;99275.19;;;16.09;100.00
21086;BME280;34247;50.064;19.970;2023-06-14T07:50:47;99272.63;;;16.07;100.00
21086;BME280;34247;50.064;19.970;2023-06-14T07:52:21;99267.41;;;16.06;100.00
21086;BME280;34247;50.064;19.970;2023-06-14T07:53:54;99270.22;;;16.14;100.00
21086;BME280;34247;50.064;19.970;2023-06-14T07:55:28;99274.34;;;16.18;100.00
21086;BME280;34247;50.064;19.970;2023-06-14T07:57:11;99278.69;;;16.19;100.00
21086;BME280;34247;50.064;19.970;2023-06-14T07:58:44;99273.03;;;16.22;100.00
21086;BME280;34247;50.064;19.970;2023-06-14T08:00:18;99272.94;;;16.23;100.00
21086;BME280;34247;50.064;19.970;2023-06-14T08:01:52;99267.69;;;16.22;100.00
21086;BME280;34247;50.064;19.970;2023-06-14T08:03:25;99271.94;;;16.24;100.00
21086;BME280;34247;50.064;19.970;2023-06-14T08:04:58;99271.50;;;16.19;100.00
21086;BME280;34247;50.064;19.970;2023-06-14T08:06:33;99269.25;;;16.15;100.00
21086;BME280;34247;50.064;19.970;2023-06-14T08:08:06;99275.31;;;16.17;100.00
21086;BME280;34247;50.064;19.970;2023-06-14T08:09:40;99272.78;;;16.15;100.00
21086;BME280;34247;50.064;19.970;2023-06-14T08:11:13;99272.78;;;16.15;100.00
21086;BME280;34247;50.064;19.970;2023-06-14T08:12:47;99275.19;;;16.18;100.00
21086;BME280;34247;50.064;19.970;2023-06-14T08:14:20;99271.25;;;16.22;100.00
21086;BME280;34247;50.064;19.970;2023-06-14T08:15:55;99269.41;;;16.23;100.00
21086;BME280;34247;50.064;19.970;2023-06-14T08:17:28;99269.97;;;16.26;100.00
21086;BME280;34247;50.064;19.970;2023-06-14T08:19:02;99265.44;;;16.27;100.00
21086;BME280;34247;50.064;19.970;2023-06-14T08:20:35;99267.88;;;16.30;100.00
21086;BME280;34247;50.064;19.970;2023-06-14T08:22:08;99267.72;;;16.32;100.00